昆明巫家餽国際空港の過去48時間の天気

昆明巫家餽国際空港 (Kunming)

現在時刻: 2/7 02:23 CST (2/6 18:23 UTC) 以下の時間は現地時間です。

過去48時間のMETAR気象情報
時間 風向 風速(m/s) 視程 気温(℃) 湿度(%) 気圧(hPa) 天気現象
7 02:00 南南西 6 7000m 11 50 1017
7 01:00 5 7000m 11 47 1017
7 00:00 南南西 4 5000m 9 50 1017 煙霧
6 23:00 4 5000m 12 41 1016 煙霧
6 22:00 南南西 4 5000m 11 43 1016 煙霧
6 21:00 南西 6 6000m 12 44 1015
6 20:00 南南西 6 8000m 15 33 1015
6 19:00 南西 9 7000m 15 31 1014
6 18:00 南西 10 10km以上 18 22 1013
6 17:00 西南西 9 10km以上 19 21 1013
6 16:00 南西 8 10km以上 19 21 1013
6 15:00 南西 9 10km以上 19 21 1014
6 14:00 南西 9 10km以上 18 22 1016
6 13:00 南西 9 10km以上 17 27 1017
6 12:00 西 9 10km以上 16 27 1019
6 11:00 西南西 8 10km以上 15 33 1019
6 10:00 南西 5 10km以上 13 47 1019
6 09:00 南南西 3 10km以上 11 54 1019
6 08:00 南西 5 10km以上 8 61 1018
6 07:00 南南西 3 10km以上 6 76 1017
6 06:00 南西 4 10km以上 6 81 1017
6 05:00 西南西 4 10km以上 9 71 1017
6 04:00 不定 1 10km以上 7 81 1017
6 03:00 南南西 5 10km以上 10 66 1017
6 02:00 南西 5 10km以上 10 66 1017
6 01:00 南西 6 10km以上 10 66 1017
6 00:00 南西 5 10km以上 12 58 1017
5 23:00 南南西 4 10km以上 12 54 1017
5 22:00 南南西 4 10km以上 13 47 1017
5 21:00 南西 5 10km以上 13 44 1016
5 20:00 南西 5 10km以上 14 38 1015
5 19:00 西南西 7 10km以上 16 34 1015
5 18:00 西南西 8 10km以上 17 29 1014
5 17:00 西 6 10km以上 18 28 1014
5 16:00 西南西 8 10km以上 18 26 1014
5 15:00 西 9 10km以上 17 29 1015
5 14:00 西 11 10km以上 18 26 1016
5 13:00 西 9 10km以上 18 30 1018
5 12:00 西南西 9 10km以上 16 34 1019
5 11:00 西南西 8 10km以上 16 45 1020
5 10:00 南西 6 10km以上 13 58 1019
5 09:00 南西 3 10km以上 10 76 1019
5 08:00 南西 3 10km以上 8 76 1018
5 07:00 南南西 5 10km以上 9 76 1017
5 06:00 南西 3 10km以上 7 87 1016
5 05:00 南南西 3 10km以上 7 93 1017
5 04:00 南南西 4 10km以上 9 87 1017
5 03:00 南南西 5 10km以上 10 76 1018
ZPPP 061800Z 21006MPS 7000 SCT023 11/01 Q1017 NOSIG
ZPPP 061700Z 19005MPS 7000 SCT023 11/M00 Q1017 NOSIG
ZPPP 061600Z 21004MPS 5000 HZ SCT023 09/M01 Q1017 NOSIG
ZPPP 061500Z 19004MPS 5000 HZ SCT023 12/M01 Q1016 NOSIG
ZPPP 061400Z 21004MPS 5000 HZ SCT023 11/M01 Q1016 NOSIG
ZPPP 061300Z 22006MPS 6000 SCT036 12/00 Q1015 NOSIG
ZPPP 061200Z 20006MPS 8000 NSC 15/M01 Q1015 NOSIG
ZPPP 061100Z 22009MPS 7000 NSC 15/M02 Q1014 NOSIG
ZPPP 061000Z 23010MPS CAVOK 18/M04 Q1013 NOSIG
ZPPP 060900Z 24009MPS 200V260 CAVOK 19/M04 Q1013 NOSIG
ZPPP 060800Z 23008MPS CAVOK 19/M04 Q1013 NOSIG
ZPPP 060700Z 23009MPS CAVOK 19/M04 Q1014 NOSIG
ZPPP 060600Z 23009G14MPS 190V250 CAVOK 18/M04 Q1016 NOSIG
ZPPP 060500Z 23009MPS 200V260 CAVOK 17/M02 Q1017 NOSIG
ZPPP 060400Z 26009MPS CAVOK 16/M03 Q1019 NOSIG
ZPPP 060300Z 24008MPS CAVOK 15/M01 Q1019 NOSIG
ZPPP 060200Z 22005MPS CAVOK 13/02 Q1019 NOSIG
ZPPP 060100Z 21003MPS CAVOK 11/02 Q1019 BECMG TL0230 22009MPS
ZPPP 060000Z 22005MPS CAVOK 08/01 Q1018 NOSIG
ZPPP 052300Z 21003MPS CAVOK 06/02 Q1017 NOSIG
ZPPP 052200Z 22004MPS CAVOK 06/03 Q1017 NOSIG
ZPPP 052100Z 24004MPS CAVOK 09/04 Q1017 NOSIG
ZPPP 052000Z VRB01MPS CAVOK 07/04 Q1017 NOSIG
ZPPP 051900Z 21005MPS CAVOK 10/04 Q1017 NOSIG
ZPPP 051800Z 23005MPS CAVOK 10/04 Q1017 NOSIG
ZPPP 051700Z 22006MPS CAVOK 10/04 Q1017 NOSIG
ZPPP 051600Z 23005MPS 9999 FEW026 SCT046 12/04 Q1017 NOSIG
ZPPP 051500Z 21004MPS 9999 FEW026 12/03 Q1017 NOSIG
ZPPP 051400Z 20004MPS CAVOK 13/02 Q1017 NOSIG
ZPPP 051300Z 22005MPS CAVOK 13/01 Q1016 NOSIG
ZPPP 051200Z 22005MPS CAVOK 14/00 Q1015 NOSIG
ZPPP 051100Z 24007MPS 9999 FEW026 16/M00 Q1015 NOSIG
ZPPP 051000Z 24008MPS CAVOK 17/M01 Q1014 NOSIG
ZPPP 050900Z 26006MPS 230V290 9999 FEW026 18/M01 Q1014 NOSIG
ZPPP 050800Z 25008MPS 220V280 9999 BKN026 18/M02 Q1014 NOSIG
ZPPP 050700Z 26009MPS 9999 SCT026 17/M01 Q1015 NOSIG
ZPPP 050600Z 27011MPS 9999 FEW026 18/M02 Q1016 NOSIG
ZPPP 050500Z 27009MPS CAVOK 18/M00 Q1018 NOSIG
ZPPP 050400Z 25009MPS CAVOK 16/00 Q1019 NOSIG
ZPPP 050300Z 24008MPS 9999 FEW026 16/04 Q1020 NOSIG
ZPPP 050200Z 23006MPS CAVOK 13/05 Q1019 NOSIG
ZPPP 050100Z 22003MPS CAVOK 10/06 Q1019 BECMG TL0250 22009MPS
ZPPP 050000Z 22003MPS CAVOK 08/04 Q1018 NOSIG
ZPPP 042300Z 21005MPS CAVOK 09/05 Q1017 NOSIG
ZPPP 042200Z 23003MPS CAVOK 07/05 Q1016 NOSIG
ZPPP 042100Z 21003MPS CAVOK 07/06 Q1017 NOSIG
ZPPP 042000Z 21004MPS CAVOK 09/07 Q1017 NOSIG
ZPPP 041900Z 21005MPS CAVOK 10/06 Q1018 NOSIG